sensor_id;sensor_type;location;lat;lon;timestamp;P1;durP1;ratioP1;P2;durP2;ratioP2
27015;SDS011;14557;0.000;0.000;2023-12-22T00:01:27;4.50;;;0.75;;
27015;SDS011;14557;0.000;0.000;2023-12-22T00:03:53;7.05;;;1.23;;
27015;SDS011;14557;0.000;0.000;2023-12-22T00:06:19;4.78;;;1.48;;
27015;SDS011;14557;0.000;0.000;2023-12-22T00:08:45;7.68;;;1.40;;
27015;SDS011;14557;0.000;0.000;2023-12-22T00:11:10;5.63;;;1.20;;
27015;SDS011;14557;0.000;0.000;2023-12-22T00:13:36;5.70;;;1.10;;
27015;SDS011;14557;0.000;0.000;2023-12-22T00:16:02;7.43;;;1.63;;
27015;SDS011;14557;0.000;0.000;2023-12-22T00:18:28;3.45;;;1.40;;
27015;SDS011;14557;0.000;0.000;2023-12-22T00:20:54;5.32;;;0.98;;
27015;SDS011;14557;0.000;0.000;2023-12-22T00:23:19;4.32;;;1.08;;
27015;SDS011;14557;0.000;0.000;2023-12-22T00:25:45;4.15;;;1.15;;
27015;SDS011;14557;0.000;0.000;2023-12-22T00:28:11;5.68;;;1.45;;
27015;SDS011;14557;0.000;0.000;2023-12-22T00:30:37;7.10;;;1.13;;
27015;SDS011;14557;0.000;0.000;2023-12-22T00:33:02;4.68;;;1.38;;
27015;SDS011;14557;0.000;0.000;2023-12-22T00:35:28;7.47;;;1.60;;
27015;SDS011;14557;0.000;0.000;2023-12-22T00:37:54;5.68;;;1.20;;
27015;SDS011;14557;0.000;0.000;2023-12-22T00:40:20;4.93;;;1.10;;
27015;SDS011;14557;0.000;0.000;2023-12-22T00:42:46;5.22;;;1.13;;
27015;SDS011;14557;0.000;0.000;2023-12-22T00:45:11;4.85;;;1.05;;
27015;SDS011;14557;0.000;0.000;2023-12-22T00:47:37;4.80;;;1.40;;
27015;SDS011;14557;0.000;0.000;2023-12-22T00:50:03;5.55;;;1.08;;
27015;SDS011;14557;0.000;0.000;2023-12-22T00:52:30;5.05;;;1.15;;
27015;SDS011;14557;0.000;0.000;2023-12-22T00:54:56;4.70;;;1.20;;
27015;SDS011;14557;0.000;0.000;2023-12-22T00:57:22;3.03;;;0.85;;
27015;SDS011;14557;0.000;0.000;2023-12-22T00:59:48;4.88;;;1.23;;
27015;SDS011;14557;0.000;0.000;2023-12-22T01:02:14;2.83;;;0.80;;
27015;SDS011;14557;0.000;0.000;2023-12-22T01:04:40;3.47;;;0.93;;
27015;SDS011;14557;0.000;0.000;2023-12-22T01:07:09;4.75;;;1.20;;
27015;SDS011;14557;0.000;0.000;2023-12-22T01:09:36;3.53;;;0.82;;
27015;SDS011;14557;0.000;0.000;2023-12-22T01:12:05;4.18;;;1.05;;
27015;SDS011;14557;0.000;0.000;2023-12-22T01:14:32;5.72;;;1.33;;
27015;SDS011;14557;0.000;0.000;2023-12-22T01:16:58;7.95;;;1.23;;
27015;SDS011;14557;0.000;0.000;2023-12-22T01:19:25;3.40;;;1.00;;
27015;SDS011;14557;0.000;0.000;2023-12-22T01:21:51;3.00;;;0.80;;
27015;SDS011;14557;0.000;0.000;2023-12-22T01:24:17;2.95;;;0.98;;
27015;SDS011;14557;0.000;0.000;2023-12-22T01:26:43;3.47;;;0.80;;
27015;SDS011;14557;0.000;0.000;2023-12-22T01:29:08;3.15;;;0.80;;
27015;SDS011;14557;0.000;0.000;2023-12-22T01:31:34;4.28;;;1.23;;
27015;SDS011;14557;0.000;0.000;2023-12-22T01:34:00;1.90;;;0.80;;
27015;SDS011;14557;0.000;0.000;2023-12-22T01:36:26;3.53;;;1.00;;
27015;SDS011;14557;0.000;0.000;2023-12-22T01:38:52;3.97;;;1.10;;
27015;SDS011;14557;0.000;0.000;2023-12-22T01:41:18;2.75;;;0.95;;
27015;SDS011;14557;0.000;0.000;2023-12-22T01:43:43;2.50;;;0.82;;
27015;SDS011;14557;0.000;0.000;2023-12-22T01:46:10;3.70;;;1.02;;
27015;SDS011;14557;0.000;0.000;2023-12-22T01:48:37;3.53;;;1.00;;
27015;SDS011;14557;0.000;0.000;2023-12-22T01:51:04;3.47;;;0.80;;
27015;SDS011;14557;0.000;0.000;2023-12-22T01:53:31;5.47;;;1.30;;
27015;SDS011;14557;0.000;0.000;2023-12-22T01:55:57;6.05;;;1.00;;
27015;SDS011;14557;0.000;0.000;2023-12-22T01:58:26;2.28;;;0.60;;
27015;SDS011;14557;0.000;0.000;2023-12-22T02:00:52;3.53;;;0.65;;
27015;SDS011;14557;0.000;0.000;2023-12-22T02:03:18;3.80;;;1.13;;
27015;SDS011;14557;0.000;0.000;2023-12-22T02:05:44;2.72;;;0.90;;
27015;SDS011;14557;0.000;0.000;2023-12-22T02:08:11;3.75;;;0.70;;
27015;SDS011;14557;0.000;0.000;2023-12-22T02:10:37;4.03;;;0.85;;
27015;SDS011;14557;0.000;0.000;2023-12-22T02:13:04;3.28;;;0.70;;
27015;SDS011;14557;0.000;0.000;2023-12-22T02:15:30;3.20;;;1.05;;
27015;SDS011;14557;0.000;0.000;2023-12-22T02:18:10;2.83;;;0.97;;
27015;SDS011;14557;0.000;0.000;2023-12-22T02:20:45;4.50;;;1.10;;
27015;SDS011;14557;0.000;0.000;2023-12-22T02:23:11;3.13;;;0.73;;
27015;SDS011;14557;0.000;0.000;2023-12-22T02:25:37;3.00;;;0.90;;
27015;SDS011;14557;0.000;0.000;2023-12-22T02:28:07;2.30;;;0.70;;
27015;SDS011;14557;0.000;0.000;2023-12-22T02:30:39;3.70;;;0.77;;
27015;SDS011;14557;0.000;0.000;2023-12-22T02:33:06;2.03;;;0.65;;
27015;SDS011;14557;0.000;0.000;2023-12-22T02:35:35;1.60;;;0.55;;
27015;SDS011;14557;0.000;0.000;2023-12-22T02:38:03;2.15;;;0.80;;
27015;SDS011;14557;0.000;0.000;2023-12-22T02:40:30;4.00;;;1.00;;
27015;SDS011;14557;0.000;0.000;2023-12-22T02:42:56;2.15;;;0.65;;
27015;SDS011;14557;0.000;0.000;2023-12-22T02:45:22;4.30;;;0.90;;
27015;SDS011;14557;0.000;0.000;2023-12-22T02:47:48;3.50;;;0.93;;
27015;SDS011;14557;0.000;0.000;2023-12-22T02:50:15;1.50;;;0.50;;
27015;SDS011;14557;0.000;0.000;2023-12-22T02:52:41;2.08;;;0.50;;
27015;SDS011;14557;0.000;0.000;2023-12-22T02:55:07;2.30;;;0.60;;
27015;SDS011;14557;0.000;0.000;2023-12-22T02:57:34;2.65;;;0.60;;
27015;SDS011;14557;0.000;0.000;2023-12-22T02:59:59;2.45;;;0.70;;
27015;SDS011;14557;0.000;0.000;2023-12-22T03:02:25;4.10;;;0.90;;
27015;SDS011;14557;0.000;0.000;2023-12-22T03:04:51;2.85;;;0.60;;
27015;SDS011;14557;0.000;0.000;2023-12-22T03:07:17;1.20;;;0.40;;
27015;SDS011;14557;0.000;0.000;2023-12-22T03:09:43;2.00;;;0.60;;
27015;SDS011;14557;0.000;0.000;2023-12-22T03:12:09;1.50;;;0.60;;
27015;SDS011;14557;0.000;0.000;2023-12-22T03:14:35;2.25;;;0.70;;
27015;SDS011;14557;0.000;0.000;2023-12-22T03:17:02;2.97;;;0.85;;
27015;SDS011;14557;0.000;0.000;2023-12-22T03:19:29;2.13;;;0.50;;
27015;SDS011;14557;0.000;0.000;2023-12-22T03:21:55;1.80;;;0.52;;
27015;SDS011;14557;0.000;0.000;2023-12-22T03:24:22;2.28;;;0.57;;
27015;SDS011;14557;0.000;0.000;2023-12-22T03:26:48;2.53;;;0.60;;
27015;SDS011;14557;0.000;0.000;2023-12-22T03:29:14;1.25;;;0.43;;
27015;SDS011;14557;0.000;0.000;2023-12-22T03:31:40;1.95;;;0.55;;
27015;SDS011;14557;0.000;0.000;2023-12-22T03:34:06;2.38;;;0.63;;
27015;SDS011;14557;0.000;0.000;2023-12-22T03:36:32;1.95;;;0.60;;
27015;SDS011;14557;0.000;0.000;2023-12-22T03:38:58;2.65;;;0.50;;
27015;SDS011;14557;0.000;0.000;2023-12-22T03:41:24;1.73;;;0.57;;
27015;SDS011;14557;0.000;0.000;2023-12-22T03:43:50;1.42;;;0.50;;
27015;SDS011;14557;0.000;0.000;2023-12-22T03:46:15;1.65;;;0.65;;
27015;SDS011;14557;0.000;0.000;2023-12-22T03:48:41;1.65;;;0.40;;
27015;SDS011;14557;0.000;0.000;2023-12-22T03:51:07;1.88;;;0.70;;
27015;SDS011;14557;0.000;0.000;2023-12-22T03:53:35;1.80;;;0.50;;
27015;SDS011;14557;0.000;0.000;2023-12-22T03:56:01;2.28;;;0.45;;
27015;SDS011;14557;0.000;0.000;2023-12-22T03:58:27;2.00;;;0.57;;
27015;SDS011;14557;0.000;0.000;2023-12-22T04:00:54;2.30;;;0.50;;
27015;SDS011;14557;0.000;0.000;2023-12-22T04:03:20;1.75;;;0.60;;
27015;SDS011;14557;0.000;0.000;2023-12-22T04:05:46;1.95;;;0.68;;
27015;SDS011;14557;0.000;0.000;2023-12-22T04:08:12;1.20;;;0.50;;
27015;SDS011;14557;0.000;0.000;2023-12-22T04:10:38;1.27;;;0.30;;
27015;SDS011;14557;0.000;0.000;2023-12-22T04:13:03;1.38;;;0.32;;
27015;SDS011;14557;0.000;0.000;2023-12-22T04:15:29;1.48;;;0.60;;
27015;SDS011;14557;0.000;0.000;2023-12-22T04:17:55;1.48;;;0.50;;
27015;SDS011;14557;0.000;0.000;2023-12-22T04:20:21;1.10;;;0.22;;
27015;SDS011;14557;0.000;0.000;2023-12-22T04:22:46;1.13;;;0.50;;
27015;SDS011;14557;0.000;0.000;2023-12-22T04:25:12;1.30;;;0.47;;
27015;SDS011;14557;0.000;0.000;2023-12-22T04:27:38;1.52;;;0.57;;
27015;SDS011;14557;0.000;0.000;2023-12-22T04:30:04;1.73;;;0.38;;
27015;SDS011;14557;0.000;0.000;2023-12-22T04:32:30;1.23;;;0.32;;
27015;SDS011;14557;0.000;0.000;2023-12-22T04:34:55;1.35;;;0.40;;
27015;SDS011;14557;0.000;0.000;2023-12-22T04:37:21;2.03;;;0.50;;
27015;SDS011;14557;0.000;0.000;2023-12-22T04:39:47;1.67;;;0.30;;
27015;SDS011;14557;0.000;0.000;2023-12-22T04:42:13;2.22;;;0.50;;
27015;SDS011;14557;0.000;0.000;2023-12-22T04:44:38;1.38;;;0.60;;
27015;SDS011;14557;0.000;0.000;2023-12-22T04:47:04;0.90;;;0.30;;
27015;SDS011;14557;0.000;0.000;2023-12-22T04:49:30;0.73;;;0.22;;
27015;SDS011;14557;0.000;0.000;2023-12-22T04:51:55;1.55;;;0.40;;
27015;SDS011;14557;0.000;0.000;2023-12-22T04:54:21;0.77;;;0.30;;
27015;SDS011;14557;0.000;0.000;2023-12-22T04:56:47;1.35;;;0.40;;
27015;SDS011;14557;0.000;0.000;2023-12-22T04:59:13;0.77;;;0.30;;
27015;SDS011;14557;0.000;0.000;2023-12-22T05:01:38;1.70;;;0.50;;
27015;SDS011;14557;0.000;0.000;2023-12-22T05:04:04;1.00;;;0.20;;
27015;SDS011;14557;0.000;0.000;2023-12-22T05:06:30;2.03;;;0.50;;
27015;SDS011;14557;0.000;0.000;2023-12-22T05:08:56;1.35;;;0.40;;
27015;SDS011;14557;0.000;0.000;2023-12-22T05:11:22;0.40;;;0.20;;
27015;SDS011;14557;0.000;0.000;2023-12-22T05:13:48;1.10;;;0.40;;
27015;SDS011;14557;0.000;0.000;2023-12-22T05:16:14;1.10;;;0.40;;
27015;SDS011;14557;0.000;0.000;2023-12-22T05:18:40;0.95;;;0.38;;
27015;SDS011;14557;0.000;0.000;2023-12-22T05:21:06;0.93;;;0.30;;
27015;SDS011;14557;0.000;0.000;2023-12-22T05:23:31;0.73;;;0.20;;
27015;SDS011;14557;0.000;0.000;2023-12-22T05:25:57;1.27;;;0.30;;
27015;SDS011;14557;0.000;0.000;2023-12-22T05:28:23;1.08;;;0.20;;
27015;SDS011;14557;0.000;0.000;2023-12-22T05:30:49;0.80;;;0.40;;
27015;SDS011;14557;0.000;0.000;2023-12-22T05:33:15;0.93;;;0.20;;
27015;SDS011;14557;0.000;0.000;2023-12-22T05:35:41;0.70;;;0.28;;
27015;SDS011;14557;0.000;0.000;2023-12-22T05:38:07;0.82;;;0.20;;
27015;SDS011;14557;0.000;0.000;2023-12-22T05:40:32;0.82;;;0.30;;
27015;SDS011;14557;0.000;0.000;2023-12-22T05:42:58;0.95;;;0.25;;
27015;SDS011;14557;0.000;0.000;2023-12-22T05:45:24;1.40;;;0.30;;
27015;SDS011;14557;0.000;0.000;2023-12-22T05:47:50;1.67;;;0.32;;
27015;SDS011;14557;0.000;0.000;2023-12-22T05:50:16;0.35;;;0.15;;
27015;SDS011;14557;0.000;0.000;2023-12-22T05:52:42;0.63;;;0.20;;
27015;SDS011;14557;0.000;0.000;2023-12-22T05:55:11;1.08;;;0.30;;
27015;SDS011;14557;0.000;0.000;2023-12-22T05:57:36;0.82;;;0.30;;
27015;SDS011;14557;0.000;0.000;2023-12-22T06:00:03;1.67;;;0.30;;
27015;SDS011;14557;0.000;0.000;2023-12-22T06:02:32;0.63;;;0.20;;
27015;SDS011;14557;0.000;0.000;2023-12-22T06:04:58;0.95;;;0.20;;
27015;SDS011;14557;0.000;0.000;2023-12-22T06:07:24;0.73;;;0.30;;
27015;SDS011;14557;0.000;0.000;2023-12-22T06:09:50;0.65;;;0.30;;
27015;SDS011;14557;0.000;0.000;2023-12-22T06:12:16;0.70;;;0.20;;
27015;SDS011;14557;0.000;0.000;2023-12-22T06:14:42;0.88;;;0.20;;
27015;SDS011;14557;0.000;0.000;2023-12-22T06:17:08;1.20;;;0.30;;
27015;SDS011;14557;0.000;0.000;2023-12-22T06:19:35;1.48;;;0.40;;
27015;SDS011;14557;0.000;0.000;2023-12-22T06:22:01;1.23;;;0.43;;
27015;SDS011;14557;0.000;0.000;2023-12-22T06:24:27;1.00;;;0.40;;
27015;SDS011;14557;0.000;0.000;2023-12-22T06:26:53;0.70;;;0.20;;
27015;SDS011;14557;0.000;0.000;2023-12-22T06:29:19;0.63;;;0.20;;
27015;SDS011;14557;0.000;0.000;2023-12-22T06:31:45;0.68;;;0.20;;
27015;SDS011;14557;0.000;0.000;2023-12-22T06:34:15;1.58;;;0.40;;
27015;SDS011;14557;0.000;0.000;2023-12-22T06:36:44;0.43;;;0.20;;
27015;SDS011;14557;0.000;0.000;2023-12-22T06:39:10;1.33;;;0.25;;
27015;SDS011;14557;0.000;0.000;2023-12-22T06:41:36;1.13;;;0.25;;
27015;SDS011;14557;0.000;0.000;2023-12-22T06:44:02;1.75;;;0.28;;
27015;SDS011;14557;0.000;0.000;2023-12-22T06:46:28;0.73;;;0.20;;
27015;SDS011;14557;0.000;0.000;2023-12-22T06:48:54;0.52;;;0.20;;
27015;SDS011;14557;0.000;0.000;2023-12-22T06:51:21;0.95;;;0.20;;
27015;SDS011;14557;0.000;0.000;2023-12-22T06:53:51;0.50;;;0.10;;
27015;SDS011;14557;0.000;0.000;2023-12-22T06:56:19;0.60;;;0.20;;
27015;SDS011;14557;0.000;0.000;2023-12-22T06:58:52;0.77;;;0.20;;
27015;SDS011;14557;0.000;0.000;2023-12-22T07:01:20;1.00;;;0.30;;
27015;SDS011;14557;0.000;0.000;2023-12-22T07:03:47;0.45;;;0.25;;
27015;SDS011;14557;0.000;0.000;2023-12-22T07:06:17;0.95;;;0.28;;
27015;SDS011;14557;0.000;0.000;2023-12-22T07:08:44;0.55;;;0.10;;
27015;SDS011;14557;0.000;0.000;2023-12-22T07:11:29;0.93;;;0.20;;
27015;SDS011;14557;0.000;0.000;2023-12-22T07:13:54;0.30;;;0.10;;
27015;SDS011;14557;0.000;0.000;2023-12-22T07:16:20;0.70;;;0.20;;
27015;SDS011;14557;0.000;0.000;2023-12-22T07:18:46;0.40;;;0.10;;
27015;SDS011;14557;0.000;0.000;2023-12-22T07:21:15;0.95;;;0.20;;
27015;SDS011;14557;0.000;0.000;2023-12-22T07:23:43;0.60;;;0.20;;
27015;SDS011;14557;0.000;0.000;2023-12-22T07:26:09;0.57;;;0.13;;
27015;SDS011;14557;0.000;0.000;2023-12-22T07:28:35;0.22;;;0.10;;
27015;SDS011;14557;0.000;0.000;2023-12-22T07:31:01;0.73;;;0.20;;
27015;SDS011;14557;0.000;0.000;2023-12-22T07:33:26;1.10;;;0.32;;
27015;SDS011;14557;0.000;0.000;2023-12-22T07:35:53;0.63;;;0.17;;
27015;SDS011;14557;0.000;0.000;2023-12-22T07:38:20;0.88;;;0.30;;
27015;SDS011;14557;0.000;0.000;2023-12-22T07:40:45;0.20;;;0.10;;
27015;SDS011;14557;0.000;0.000;2023-12-22T07:43:11;0.30;;;0.20;;
27015;SDS011;14557;0.000;0.000;2023-12-22T07:45:38;0.40;;;0.10;;
27015;SDS011;14557;0.000;0.000;2023-12-22T07:48:04;0.08;;;0.03;;
27015;SDS011;14557;0.000;0.000;2023-12-22T07:50:30;0.75;;;0.20;;
27015;SDS011;14557;0.000;0.000;2023-12-22T07:52:55;1.02;;;0.20;;
27015;SDS011;14557;0.000;0.000;2023-12-22T07:55:21;0.80;;;0.20;;
27015;SDS011;14557;0.000;0.000;2023-12-22T07:57:47;0.93;;;0.20;;
27015;SDS011;14557;0.000;0.000;2023-12-22T08:00:13;0.60;;;0.10;;
27015;SDS011;14557;0.000;0.000;2023-12-22T08:02:39;0.60;;;0.20;;
27015;SDS011;14557;0.000;0.000;2023-12-22T08:05:04;0.47;;;0.10;;
27015;SDS011;14557;0.000;0.000;2023-12-22T08:07:30;0.20;;;0.10;;
27015;SDS011;14557;0.000;0.000;2023-12-22T08:09:56;0.65;;;0.20;;
27015;SDS011;14557;0.000;0.000;2023-12-22T08:12:22;0.25;;;0.05;;
27015;SDS011;14557;0.000;0.000;2023-12-22T08:14:48;0.40;;;0.10;;
27015;SDS011;14557;0.000;0.000;2023-12-22T08:17:14;0.60;;;0.15;;
27015;SDS011;14557;0.000;0.000;2023-12-22T08:19:39;34.03;;;1.55;;
27015;SDS011;14557;0.000;0.000;2023-12-22T08:22:11;6.95;;;0.77;;
27015;SDS011;14557;0.000;0.000;2023-12-22T08:24:40;1.50;;;0.43;;
27015;SDS011;14557;0.000;0.000;2023-12-22T08:27:06;6.22;;;0.50;;
27015;SDS011;14557;0.000;0.000;2023-12-22T08:29:32;3.67;;;0.40;;
27015;SDS011;14557;0.000;0.000;2023-12-22T08:31:58;3.20;;;0.30;;
27015;SDS011;14557;0.000;0.000;2023-12-22T08:34:25;4.65;;;0.25;;
27015;SDS011;14557;0.000;0.000;2023-12-22T08:36:51;2.95;;;0.25;;
27015;SDS011;14557;0.000;0.000;2023-12-22T08:39:17;4.15;;;1.38;;
27015;SDS011;14557;0.000;0.000;2023-12-22T08:41:43;0.80;;;0.20;;
27015;SDS011;14557;0.000;0.000;2023-12-22T08:44:09;4.18;;;0.40;;
27015;SDS011;14557;0.000;0.000;2023-12-22T08:46:35;1.58;;;0.15;;
27015;SDS011;14557;0.000;0.000;2023-12-22T08:49:01;5.45;;;0.22;;
27015;SDS011;14557;0.000;0.000;2023-12-22T08:51:28;0.73;;;0.20;;
27015;SDS011;14557;0.000;0.000;2023-12-22T08:53:54;6.07;;;0.90;;
27015;SDS011;14557;0.000;0.000;2023-12-22T08:56:21;5.35;;;1.98;;
27015;SDS011;14557;0.000;0.000;2023-12-22T08:58:51;6.47;;;1.02;;
27015;SDS011;14557;0.000;0.000;2023-12-22T09:01:17;1.67;;;0.65;;
27015;SDS011;14557;0.000;0.000;2023-12-22T09:03:44;1.67;;;0.45;;
27015;SDS011;14557;0.000;0.000;2023-12-22T09:06:18;3.90;;;1.20;;
27015;SDS011;14557;0.000;0.000;2023-12-22T09:08:46;1.10;;;0.50;;
27015;SDS011;14557;0.000;0.000;2023-12-22T09:11:12;2.30;;;0.40;;
27015;SDS011;14557;0.000;0.000;2023-12-22T09:13:42;1.17;;;0.40;;
27015;SDS011;14557;0.000;0.000;2023-12-22T09:16:08;1.53;;;0.50;;
27015;SDS011;14557;0.000;0.000;2023-12-22T09:18:34;2.97;;;0.68;;
27015;SDS011;14557;0.000;0.000;2023-12-22T09:21:01;5.80;;;1.15;;
27015;SDS011;14557;0.000;0.000;2023-12-22T09:23:32;5.18;;;1.55;;
27015;SDS011;14557;0.000;0.000;2023-12-22T09:25:57;2.90;;;0.88;;
27015;SDS011;14557;0.000;0.000;2023-12-22T09:28:23;2.15;;;0.35;;
27015;SDS011;14557;0.000;0.000;2023-12-22T09:30:50;1.90;;;0.88;;
27015;SDS011;14557;0.000;0.000;2023-12-22T09:33:16;3.05;;;0.50;;
27015;SDS011;14557;0.000;0.000;2023-12-22T09:35:41;2.38;;;0.70;;
27015;SDS011;14557;0.000;0.000;2023-12-22T09:38:08;1.23;;;0.52;;
27015;SDS011;14557;0.000;0.000;2023-12-22T09:43:02;1.23;;;0.45;;
27015;SDS011;14557;0.000;0.000;2023-12-22T09:45:30;1.95;;;0.52;;
27015;SDS011;14557;0.000;0.000;2023-12-22T09:47:58;1.95;;;0.40;;
27015;SDS011;14557;0.000;0.000;2023-12-22T09:50:29;1.67;;;0.47;;
27015;SDS011;14557;0.000;0.000;2023-12-22T09:52:56;0.73;;;0.25;;
27015;SDS011;14557;0.000;0.000;2023-12-22T09:55:22;1.48;;;0.40;;
27015;SDS011;14557;0.000;0.000;2023-12-22T09:57:51;0.85;;;0.47;;
27015;SDS011;14557;0.000;0.000;2023-12-22T10:00:17;2.42;;;0.77;;
27015;SDS011;14557;0.000;0.000;2023-12-22T10:02:44;2.33;;;0.60;;
27015;SDS011;14557;0.000;0.000;2023-12-22T10:05:11;1.27;;;0.70;;
27015;SDS011;14557;0.000;0.000;2023-12-22T10:07:40;1.80;;;0.60;;
27015;SDS011;14557;0.000;0.000;2023-12-22T10:10:09;1.85;;;0.63;;
27015;SDS011;14557;0.000;0.000;2023-12-22T10:15:03;1.65;;;0.80;;
27015;SDS011;14557;0.000;0.000;2023-12-22T10:17:31;1.67;;;0.73;;
27015;SDS011;14557;0.000;0.000;2023-12-22T10:19:58;1.67;;;0.60;;
27015;SDS011;14557;0.000;0.000;2023-12-22T10:22:24;1.60;;;0.65;;
27015;SDS011;14557;0.000;0.000;2023-12-22T10:24:50;1.50;;;0.40;;
27015;SDS011;14557;0.000;0.000;2023-12-22T10:27:16;2.58;;;0.40;;
27015;SDS011;14557;0.000;0.000;2023-12-22T10:29:47;0.93;;;0.43;;
27015;SDS011;14557;0.000;0.000;2023-12-22T10:32:15;1.98;;;0.50;;
27015;SDS011;14557;0.000;0.000;2023-12-22T10:34:41;1.25;;;0.47;;
27015;SDS011;14557;0.000;0.000;2023-12-22T10:37:07;2.25;;;0.45;;
27015;SDS011;14557;0.000;0.000;2023-12-22T10:39:35;1.17;;;0.43;;
27015;SDS011;14557;0.000;0.000;2023-12-22T10:42:01;1.30;;;0.40;;
27015;SDS011;14557;0.000;0.000;2023-12-22T10:44:28;1.85;;;0.60;;
27015;SDS011;14557;0.000;0.000;2023-12-22T10:46:54;1.73;;;0.35;;
27015;SDS011;14557;0.000;0.000;2023-12-22T10:49:21;0.90;;;0.50;;
27015;SDS011;14557;0.000;0.000;2023-12-22T10:51:48;2.50;;;0.50;;
27015;SDS011;14557;0.000;0.000;2023-12-22T10:54:14;1.02;;;0.40;;
27015;SDS011;14557;0.000;0.000;2023-12-22T10:56:40;1.92;;;0.70;;
27015;SDS011;14557;0.000;0.000;2023-12-22T10:59:06;2.22;;;0.40;;
27015;SDS011;14557;0.000;0.000;2023-12-22T11:01:33;1.55;;;0.40;;
27015;SDS011;14557;0.000;0.000;2023-12-22T11:04:13;1.83;;;0.60;;
27015;SDS011;14557;0.000;0.000;2023-12-22T11:06:44;1.88;;;0.73;;
27015;SDS011;14557;0.000;0.000;2023-12-22T11:09:12;1.90;;;0.45;;
27015;SDS011;14557;0.000;0.000;2023-12-22T11:11:41;3.45;;;0.60;;
27015;SDS011;14557;0.000;0.000;2023-12-22T11:14:07;1.35;;;0.30;;
27015;SDS011;14557;0.000;0.000;2023-12-22T11:16:35;1.17;;;0.30;;
27015;SDS011;14557;0.000;0.000;2023-12-22T11:19:02;1.05;;;0.50;;
27015;SDS011;14557;0.000;0.000;2023-12-22T11:21:28;1.63;;;0.52;;
27015;SDS011;14557;0.000;0.000;2023-12-22T11:23:55;1.00;;;0.40;;
27015;SDS011;14557;0.000;0.000;2023-12-22T11:26:25;1.52;;;0.40;;
27015;SDS011;14557;0.000;0.000;2023-12-22T11:28:51;0.65;;;0.38;;
27015;SDS011;14557;0.000;0.000;2023-12-22T11:31:18;0.98;;;0.40;;
27015;SDS011;14557;0.000;0.000;2023-12-22T11:36:12;1.25;;;0.38;;
27015;SDS011;14557;0.000;0.000;2023-12-22T11:38:42;2.15;;;0.35;;
27015;SDS011;14557;0.000;0.000;2023-12-22T11:41:20;1.15;;;0.32;;
27015;SDS011;14557;0.000;0.000;2023-12-22T11:43:50;2.40;;;0.40;;
27015;SDS011;14557;0.000;0.000;2023-12-22T11:46:17;1.60;;;0.28;;
27015;SDS011;14557;0.000;0.000;2023-12-22T11:48:49;0.82;;;0.25;;
27015;SDS011;14557;0.000;0.000;2023-12-22T11:51:16;1.10;;;0.30;;
27015;SDS011;14557;0.000;0.000;2023-12-22T11:53:42;1.48;;;0.20;;
27015;SDS011;14557;0.000;0.000;2023-12-22T11:56:09;1.70;;;0.50;;
27015;SDS011;14557;0.000;0.000;2023-12-22T12:01:11;1.42;;;0.20;;
27015;SDS011;14557;0.000;0.000;2023-12-22T12:03:41;0.85;;;0.20;;
27015;SDS011;14557;0.000;0.000;2023-12-22T12:06:16;3.00;;;0.30;;
27015;SDS011;14557;0.000;0.000;2023-12-22T12:08:48;1.80;;;0.40;;
27015;SDS011;14557;0.000;0.000;2023-12-22T12:11:14;0.60;;;0.20;;
27015;SDS011;14557;0.000;0.000;2023-12-22T12:13:43;0.85;;;0.20;;
27015;SDS011;14557;0.000;0.000;2023-12-22T12:16:11;0.75;;;0.28;;
27015;SDS011;14557;0.000;0.000;2023-12-22T12:18:38;0.80;;;0.20;;
27015;SDS011;14557;0.000;0.000;2023-12-22T12:21:08;1.35;;;0.50;;
27015;SDS011;14557;0.000;0.000;2023-12-22T12:23:35;1.30;;;0.30;;
27015;SDS011;14557;0.000;0.000;2023-12-22T12:26:01;2.13;;;0.40;;
27015;SDS011;14557;0.000;0.000;2023-12-22T12:28:33;3.88;;;0.60;;
27015;SDS011;14557;0.000;0.000;2023-12-22T12:31:09;1.25;;;0.20;;
27015;SDS011;14557;0.000;0.000;2023-12-22T12:33:35;0.55;;;0.20;;
27015;SDS011;14557;0.000;0.000;2023-12-22T12:36:02;1.05;;;0.20;;
27015;SDS011;14557;0.000;0.000;2023-12-22T12:41:22;1.83;;;0.38;;
27015;SDS011;14557;0.000;0.000;2023-12-22T12:43:59;2.55;;;0.47;;
27015;SDS011;14557;0.000;0.000;2023-12-22T12:46:32;5.93;;;0.50;;
27015;SDS011;14557;0.000;0.000;2023-12-22T12:49:05;3.25;;;0.50;;
27015;SDS011;14557;0.000;0.000;2023-12-22T12:51:40;3.15;;;0.28;;
27015;SDS011;14557;0.000;0.000;2023-12-22T12:54:08;2.08;;;0.28;;
27015;SDS011;14557;0.000;0.000;2023-12-22T12:56:41;2.53;;;0.50;;
27015;SDS011;14557;0.000;0.000;2023-12-22T12:59:12;1.90;;;0.22;;
27015;SDS011;14557;0.000;0.000;2023-12-22T13:01:40;1.67;;;0.30;;
27015;SDS011;14557;0.000;0.000;2023-12-22T13:04:06;2.22;;;0.38;;
27015;SDS011;14557;0.000;0.000;2023-12-22T13:06:32;3.25;;;0.57;;
27015;SDS011;14557;0.000;0.000;2023-12-22T13:08:58;2.10;;;0.60;;
27015;SDS011;14557;0.000;0.000;2023-12-22T13:11:25;2.42;;;0.52;;
27015;SDS011;14557;0.000;0.000;2023-12-22T13:13:53;1.58;;;0.50;;
27015;SDS011;14557;0.000;0.000;2023-12-22T13:16:19;1.95;;;0.40;;
27015;SDS011;14557;0.000;0.000;2023-12-22T13:21:13;1.95;;;0.30;;
27015;SDS011;14557;0.000;0.000;2023-12-22T13:23:39;1.58;;;0.40;;
27015;SDS011;14557;0.000;0.000;2023-12-22T13:26:05;1.98;;;0.30;;
27015;SDS011;14557;0.000;0.000;2023-12-22T13:28:31;0.70;;;0.20;;
27015;SDS011;14557;0.000;0.000;2023-12-22T13:30:57;1.67;;;0.40;;
27015;SDS011;14557;0.000;0.000;2023-12-22T13:33:23;1.10;;;0.50;;
27015;SDS011;14557;0.000;0.000;2023-12-22T13:35:56;3.15;;;0.40;;
27015;SDS011;14557;0.000;0.000;2023-12-22T13:38:23;0.77;;;0.25;;
27015;SDS011;14557;0.000;0.000;2023-12-22T13:40:49;1.38;;;0.20;;
27015;SDS011;14557;0.000;0.000;2023-12-22T13:43:15;1.95;;;0.40;;
27015;SDS011;14557;0.000;0.000;2023-12-22T13:45:41;6.90;;;0.63;;
27015;SDS011;14557;0.000;0.000;2023-12-22T13:48:06;1.27;;;0.38;;
27015;SDS011;14557;0.000;0.000;2023-12-22T13:50:33;1.00;;;0.20;;
27015;SDS011;14557;0.000;0.000;2023-12-22T13:53:10;5.15;;;0.45;;
27015;SDS011;14557;0.000;0.000;2023-12-22T13:55:36;2.15;;;0.30;;
27015;SDS011;14557;0.000;0.000;2023-12-22T13:58:03;0.75;;;0.20;;
27015;SDS011;14557;0.000;0.000;2023-12-22T14:00:29;2.97;;;0.50;;
27015;SDS011;14557;0.000;0.000;2023-12-22T14:02:56;1.88;;;0.20;;
27015;SDS011;14557;0.000;0.000;2023-12-22T14:05:23;1.75;;;0.20;;
27015;SDS011;14557;0.000;0.000;2023-12-22T14:07:49;1.48;;;0.20;;
27015;SDS011;14557;0.000;0.000;2023-12-22T14:10:15;1.92;;;0.25;;
27015;SDS011;14557;0.000;0.000;2023-12-22T14:12:41;4.05;;;0.32;;
27015;SDS011;14557;0.000;0.000;2023-12-22T14:15:07;2.47;;;0.40;;
27015;SDS011;14557;0.000;0.000;2023-12-22T14:17:36;7.80;;;1.70;;
27015;SDS011;14557;0.000;0.000;2023-12-22T14:20:03;0.87;;;0.30;;
27015;SDS011;14557;0.000;0.000;2023-12-22T14:22:35;2.78;;;0.40;;
27015;SDS011;14557;0.000;0.000;2023-12-22T14:25:02;1.35;;;0.40;;
27015;SDS011;14557;0.000;0.000;2023-12-22T14:27:28;3.45;;;0.50;;
27015;SDS011;14557;0.000;0.000;2023-12-22T14:29:54;2.47;;;0.20;;
27015;SDS011;14557;0.000;0.000;2023-12-22T14:32:19;2.50;;;0.30;;
27015;SDS011;14557;0.000;0.000;2023-12-22T14:34:46;1.45;;;0.30;;
27015;SDS011;14557;0.000;0.000;2023-12-22T14:37:11;2.25;;;0.30;;
27015;SDS011;14557;0.000;0.000;2023-12-22T14:39:38;3.72;;;0.20;;
27015;SDS011;14557;0.000;0.000;2023-12-22T14:42:04;4.22;;;0.30;;
27015;SDS011;14557;0.000;0.000;2023-12-22T14:44:30;2.50;;;0.20;;
27015;SDS011;14557;0.000;0.000;2023-12-22T14:46:56;1.70;;;0.20;;
27015;SDS011;14557;0.000;0.000;2023-12-22T14:49:22;1.98;;;0.30;;
27015;SDS011;14557;0.000;0.000;2023-12-22T14:51:48;3.67;;;0.30;;
27015;SDS011;14557;0.000;0.000;2023-12-22T14:54:19;0.65;;;0.25;;
27015;SDS011;14557;0.000;0.000;2023-12-22T14:56:46;4.75;;;0.50;;
27015;SDS011;14557;0.000;0.000;2023-12-22T15:01:42;2.30;;;0.20;;
27015;SDS011;14557;0.000;0.000;2023-12-22T15:04:08;2.58;;;0.20;;
27015;SDS011;14557;0.000;0.000;2023-12-22T15:06:37;3.45;;;0.40;;
27015;SDS011;14557;0.000;0.000;2023-12-22T15:09:05;1.63;;;0.30;;
27015;SDS011;14557;0.000;0.000;2023-12-22T15:11:31;4.28;;;0.28;;
27015;SDS011;14557;0.000;0.000;2023-12-22T15:13:57;4.20;;;1.00;;
27015;SDS011;14557;0.000;0.000;2023-12-22T15:16:22;1.15;;;0.15;;